Terminal Aerodrome Forecast
Issued by NWS

Home | Current Version | Previous Version | Graphics & Text | Print | Product List | Glossary On
Versions: 1 2 3 4 5 6 7 8 9 10 11 12 13 14
000
FTUS43 KICT 181124
TAFSLN
TAF
KSLN 181124Z 1812/1912 VRB05KT P6SM FEW025 OVC070
     FM181600 16010KT P6SM SCT040 BKN080
     FM190000 15012KT P6SM VCTS SCT020 BKN035CB=

USA.gov is the U.S. government's official web portal to all federal, state and local government web resources and services.